sensor_id;sensor_type;location;lat;lon;timestamp;pressure;altitude;pressure_sealevel;temperature;humidity
35910;BME280;22004;49.120;-0.200;2023-03-22T00:00:53;100827.56;;;10.38;75.93
35910;BME280;22004;49.120;-0.200;2023-03-22T00:03:18;100816.91;;;10.22;76.60
35910;BME280;22004;49.120;-0.200;2023-03-22T00:05:44;100821.97;;;10.17;75.91
35910;BME280;22004;49.120;-0.200;2023-03-22T00:08:10;100825.78;;;10.30;76.01
35910;BME280;22004;49.120;-0.200;2023-03-22T00:10:39;100837.44;;;10.46;76.32
35910;BME280;22004;49.120;-0.200;2023-03-22T00:13:06;100835.34;;;10.56;75.99
35910;BME280;22004;49.120;-0.200;2023-03-22T00:15:32;100845.81;;;10.43;76.56
35910;BME280;22004;49.120;-0.200;2023-03-22T00:17:58;100839.94;;;10.47;76.02
35910;BME280;22004;49.120;-0.200;2023-03-22T00:20:25;100832.34;;;10.20;76.67
35910;BME280;22004;49.120;-0.200;2023-03-22T00:22:55;100831.69;;;10.26;77.25
35910;BME280;22004;49.120;-0.200;2023-03-22T00:25:20;100829.88;;;10.49;76.23
35910;BME280;22004;49.120;-0.200;2023-03-22T00:27:46;100823.53;;;10.42;76.44
35910;BME280;22004;49.120;-0.200;2023-03-22T00:30:11;100828.53;;;10.45;75.93
35910;BME280;22004;49.120;-0.200;2023-03-22T00:32:37;100815.50;;;10.65;76.06
35910;BME280;22004;49.120;-0.200;2023-03-22T00:35:04;100811.19;;;10.56;76.60
35910;BME280;22004;49.120;-0.200;2023-03-22T00:37:30;100807.84;;;10.23;76.94
35910;BME280;22004;49.120;-0.200;2023-03-22T00:40:07;100805.56;;;10.43;76.17
35910;BME280;22004;49.120;-0.200;2023-03-22T00:42:37;100809.94;;;10.90;75.20
35910;BME280;22004;49.120;-0.200;2023-03-22T00:45:04;100805.38;;;10.67;75.16
35910;BME280;22004;49.120;-0.200;2023-03-22T00:47:30;100795.47;;;10.68;75.47
35910;BME280;22004;49.120;-0.200;2023-03-22T00:49:56;100791.53;;;10.78;75.04
35910;BME280;22004;49.120;-0.200;2023-03-22T00:52:21;100797.66;;;10.49;75.79
35910;BME280;22004;49.120;-0.200;2023-03-22T00:54:46;100784.78;;;10.82;74.38
35910;BME280;22004;49.120;-0.200;2023-03-22T00:57:12;100791.28;;;10.50;76.25
35910;BME280;22004;49.120;-0.200;2023-03-22T00:59:38;100797.16;;;10.46;75.88
35910;BME280;22004;49.120;-0.200;2023-03-22T01:02:05;100781.53;;;10.72;75.92
35910;BME280;22004;49.120;-0.200;2023-03-22T01:04:32;100776.44;;;10.77;74.60
35910;BME280;22004;49.120;-0.200;2023-03-22T01:07:00;100785.13;;;10.65;74.74
35910;BME280;22004;49.120;-0.200;2023-03-22T01:09:28;100773.31;;;10.51;74.98
35910;BME280;22004;49.120;-0.200;2023-03-22T01:11:58;100785.28;;;10.63;75.28
35910;BME280;22004;49.120;-0.200;2023-03-22T01:14:25;100771.50;;;10.66;74.87
35910;BME280;22004;49.120;-0.200;2023-03-22T01:16:51;100772.44;;;10.73;75.11
35910;BME280;22004;49.120;-0.200;2023-03-22T01:19:24;100768.78;;;10.51;75.33
35910;BME280;22004;49.120;-0.200;2023-03-22T01:21:51;100779.16;;;10.92;74.22
35910;BME280;22004;49.120;-0.200;2023-03-22T01:24:17;100763.25;;;10.68;74.73
35910;BME280;22004;49.120;-0.200;2023-03-22T01:26:42;100759.72;;;10.90;74.57
35910;BME280;22004;49.120;-0.200;2023-03-22T01:29:08;100757.19;;;10.88;74.61
35910;BME280;22004;49.120;-0.200;2023-03-22T01:31:33;100742.56;;;10.76;73.91
35910;BME280;22004;49.120;-0.200;2023-03-22T01:33:59;100750.88;;;11.04;74.30
35910;BME280;22004;49.120;-0.200;2023-03-22T01:36:24;100740.75;;;10.69;74.62
35910;BME280;22004;49.120;-0.200;2023-03-22T01:38:50;100740.63;;;10.47;74.27
35910;BME280;22004;49.120;-0.200;2023-03-22T01:41:16;100728.06;;;10.63;74.03
35910;BME280;22004;49.120;-0.200;2023-03-22T01:43:42;100723.00;;;10.68;73.68
35910;BME280;22004;49.120;-0.200;2023-03-22T01:46:07;100722.16;;;10.67;73.63
35910;BME280;22004;49.120;-0.200;2023-03-22T01:48:41;100715.06;;;10.74;74.17
35910;BME280;22004;49.120;-0.200;2023-03-22T01:51:16;100716.78;;;10.67;73.42
35910;BME280;22004;49.120;-0.200;2023-03-22T01:53:48;100711.94;;;10.85;72.98
35910;BME280;22004;49.120;-0.200;2023-03-22T01:56:16;100713.09;;;10.83;73.92
35910;BME280;22004;49.120;-0.200;2023-03-22T01:58:43;100705.06;;;10.98;72.40
35910;BME280;22004;49.120;-0.200;2023-03-22T02:01:09;100710.38;;;11.21;72.91
35910;BME280;22004;49.120;-0.200;2023-03-22T02:06:20;100683.50;;;11.06;73.33
35910;BME280;22004;49.120;-0.200;2023-03-22T02:08:45;100696.28;;;10.89;73.62
35910;BME280;22004;49.120;-0.200;2023-03-22T02:11:23;100680.44;;;10.79;73.08
35910;BME280;22004;49.120;-0.200;2023-03-22T02:41:35;100632.38;;;10.84;74.31
35910;BME280;22004;49.120;-0.200;2023-03-22T02:44:34;100620.69;;;10.63;74.89
35910;BME280;22004;49.120;-0.200;2023-03-22T02:47:12;100630.94;;;10.59;75.54
35910;BME280;22004;49.120;-0.200;2023-03-22T02:50:06;100625.59;;;10.44;75.48
35910;BME280;22004;49.120;-0.200;2023-03-22T02:55:14;100619.22;;;10.90;74.55
35910;BME280;22004;49.120;-0.200;2023-03-22T03:00:15;100606.25;;;10.78;74.67
35910;BME280;22004;49.120;-0.200;2023-03-22T03:02:51;100603.94;;;10.75;74.96
35910;BME280;22004;49.120;-0.200;2023-03-22T03:05:19;100598.47;;;10.83;74.89
35910;BME280;22004;49.120;-0.200;2023-03-22T03:07:49;100602.44;;;10.73;74.85
35910;BME280;22004;49.120;-0.200;2023-03-22T03:10:17;100605.97;;;10.73;75.36
35910;BME280;22004;49.120;-0.200;2023-03-22T03:12:44;100612.00;;;10.90;74.82
35910;BME280;22004;49.120;-0.200;2023-03-22T03:15:18;100598.09;;;10.86;75.10
35910;BME280;22004;49.120;-0.200;2023-03-22T03:18:04;100591.22;;;10.84;75.27
35910;BME280;22004;49.120;-0.200;2023-03-22T03:20:48;100586.78;;;11.06;74.44
35910;BME280;22004;49.120;-0.200;2023-03-22T03:28:52;100586.63;;;10.78;75.47
35910;BME280;22004;49.120;-0.200;2023-03-22T03:33:56;100591.44;;;10.82;75.58
35910;BME280;22004;49.120;-0.200;2023-03-22T03:36:22;100585.91;;;10.69;75.78
35910;BME280;22004;49.120;-0.200;2023-03-22T03:38:51;100591.06;;;10.85;75.81
35910;BME280;22004;49.120;-0.200;2023-03-22T03:41:22;100583.50;;;10.74;76.45
35910;BME280;22004;49.120;-0.200;2023-03-22T03:43:49;100584.41;;;10.81;75.97
35910;BME280;22004;49.120;-0.200;2023-03-22T03:46:16;100581.25;;;10.78;76.37
35910;BME280;22004;49.120;-0.200;2023-03-22T03:48:44;100577.38;;;10.80;76.37
35910;BME280;22004;49.120;-0.200;2023-03-22T03:51:11;100578.28;;;10.87;75.53
35910;BME280;22004;49.120;-0.200;2023-03-22T03:53:37;100574.84;;;10.94;75.68
35910;BME280;22004;49.120;-0.200;2023-03-22T03:56:02;100570.97;;;10.96;75.46
35910;BME280;22004;49.120;-0.200;2023-03-22T03:58:27;100576.69;;;10.93;75.52
35910;BME280;22004;49.120;-0.200;2023-03-22T04:00:55;100575.47;;;11.10;75.01
35910;BME280;22004;49.120;-0.200;2023-03-22T04:03:20;100582.59;;;11.03;74.58
35910;BME280;22004;49.120;-0.200;2023-03-22T04:05:45;100578.66;;;10.99;75.13
35910;BME280;22004;49.120;-0.200;2023-03-22T04:08:11;100578.72;;;11.06;74.80
35910;BME280;22004;49.120;-0.200;2023-03-22T04:10:36;100580.28;;;11.15;74.17
35910;BME280;22004;49.120;-0.200;2023-03-22T04:13:02;100577.78;;;10.99;74.71
35910;BME280;22004;49.120;-0.200;2023-03-22T04:15:27;100581.22;;;11.07;74.40
35910;BME280;22004;49.120;-0.200;2023-03-22T04:17:52;100577.22;;;11.03;74.68
35910;BME280;22004;49.120;-0.200;2023-03-22T04:20:18;100575.56;;;11.02;74.92
35910;BME280;22004;49.120;-0.200;2023-03-22T04:22:44;100578.53;;;11.07;74.58
35910;BME280;22004;49.120;-0.200;2023-03-22T04:25:12;100574.13;;;11.00;74.85
35910;BME280;22004;49.120;-0.200;2023-03-22T04:27:39;100577.69;;;11.07;74.58
35910;BME280;22004;49.120;-0.200;2023-03-22T04:30:08;100564.28;;;10.92;75.10
35910;BME280;22004;49.120;-0.200;2023-03-22T04:32:37;100578.38;;;10.94;74.41
35910;BME280;22004;49.120;-0.200;2023-03-22T04:35:03;100574.56;;;10.88;74.49
35910;BME280;22004;49.120;-0.200;2023-03-22T04:37:29;100576.34;;;10.96;74.63
35910;BME280;22004;49.120;-0.200;2023-03-22T04:39:58;100580.22;;;10.94;74.85
35910;BME280;22004;49.120;-0.200;2023-03-22T04:42:24;100565.31;;;10.91;74.95
35910;BME280;22004;49.120;-0.200;2023-03-22T04:44:50;100567.91;;;10.99;74.09
35910;BME280;22004;49.120;-0.200;2023-03-22T04:47:15;100568.06;;;10.98;74.26
35910;BME280;22004;49.120;-0.200;2023-03-22T04:49:42;100556.78;;;11.02;74.97
35910;BME280;22004;49.120;-0.200;2023-03-22T04:52:09;100566.78;;;10.94;75.02
35910;BME280;22004;49.120;-0.200;2023-03-22T04:54:35;100561.88;;;10.97;75.05
35910;BME280;22004;49.120;-0.200;2023-03-22T04:57:01;100557.34;;;10.83;75.67
35910;BME280;22004;49.120;-0.200;2023-03-22T04:59:26;100550.31;;;10.97;74.80
35910;BME280;22004;49.120;-0.200;2023-03-22T05:01:52;100555.75;;;10.88;75.71
35910;BME280;22004;49.120;-0.200;2023-03-22T05:04:18;100543.28;;;10.81;75.69
35910;BME280;22004;49.120;-0.200;2023-03-22T05:06:44;100555.06;;;10.80;75.94
35910;BME280;22004;49.120;-0.200;2023-03-22T05:09:10;100549.97;;;10.85;76.11
35910;BME280;22004;49.120;-0.200;2023-03-22T05:11:36;100541.50;;;10.88;75.85
35910;BME280;22004;49.120;-0.200;2023-03-22T05:14:02;100547.06;;;10.86;75.99
35910;BME280;22004;49.120;-0.200;2023-03-22T05:16:27;100544.47;;;10.93;75.87
35910;BME280;22004;49.120;-0.200;2023-03-22T05:18:53;100540.50;;;10.89;76.20
35910;BME280;22004;49.120;-0.200;2023-03-22T05:21:20;100544.47;;;10.78;76.75
35910;BME280;22004;49.120;-0.200;2023-03-22T05:23:47;100542.72;;;11.00;75.90
35910;BME280;22004;49.120;-0.200;2023-03-22T05:26:14;100550.69;;;10.79;76.53
35910;BME280;22004;49.120;-0.200;2023-03-22T05:28:40;100540.47;;;11.04;75.64
35910;BME280;22004;49.120;-0.200;2023-03-22T05:31:06;100548.56;;;10.89;76.60
35910;BME280;22004;49.120;-0.200;2023-03-22T05:33:32;100538.09;;;10.94;76.41
35910;BME280;22004;49.120;-0.200;2023-03-22T05:35:59;100535.88;;;10.83;77.13
35910;BME280;22004;49.120;-0.200;2023-03-22T05:38:24;100540.13;;;10.92;76.70
35910;BME280;22004;49.120;-0.200;2023-03-22T05:40:50;100541.78;;;10.78;77.60
35910;BME280;22004;49.120;-0.200;2023-03-22T05:43:16;100539.91;;;10.94;77.27
35910;BME280;22004;49.120;-0.200;2023-03-22T05:45:41;100540.88;;;10.71;78.33
35910;BME280;22004;49.120;-0.200;2023-03-22T05:48:07;100539.09;;;10.78;78.06
35910;BME280;22004;49.120;-0.200;2023-03-22T05:50:33;100538.84;;;10.73;78.14
35910;BME280;22004;49.120;-0.200;2023-03-22T05:52:58;100541.44;;;10.67;78.81
35910;BME280;22004;49.120;-0.200;2023-03-22T05:55:24;100544.19;;;10.88;77.77
35910;BME280;22004;49.120;-0.200;2023-03-22T05:57:50;100552.72;;;10.62;79.30
35910;BME280;22004;49.120;-0.200;2023-03-22T06:00:19;100538.47;;;10.76;78.33
35910;BME280;22004;49.120;-0.200;2023-03-22T06:02:47;100533.84;;;10.70;79.14
35910;BME280;22004;49.120;-0.200;2023-03-22T06:05:15;100532.81;;;10.86;77.83
35910;BME280;22004;49.120;-0.200;2023-03-22T06:07:41;100526.44;;;10.72;78.97
35910;BME280;22004;49.120;-0.200;2023-03-22T06:10:11;100530.16;;;10.71;79.41
35910;BME280;22004;49.120;-0.200;2023-03-22T06:12:36;100530.22;;;10.63;79.84
35910;BME280;22004;49.120;-0.200;2023-03-22T06:15:02;100532.47;;;10.74;79.29
35910;BME280;22004;49.120;-0.200;2023-03-22T06:17:29;100529.88;;;10.66;79.82
35910;BME280;22004;49.120;-0.200;2023-03-22T06:19:54;100526.06;;;10.75;79.56
35910;BME280;22004;49.120;-0.200;2023-03-22T06:22:20;100527.19;;;10.81;79.34
35910;BME280;22004;49.120;-0.200;2023-03-22T06:24:47;100531.44;;;10.75;79.68
35910;BME280;22004;49.120;-0.200;2023-03-22T06:27:12;100530.91;;;10.65;80.38
35910;BME280;22004;49.120;-0.200;2023-03-22T06:29:38;100520.88;;;10.59;80.85
35910;BME280;22004;49.120;-0.200;2023-03-22T06:32:04;100518.06;;;10.97;78.58
35910;BME280;22004;49.120;-0.200;2023-03-22T06:34:29;100517.03;;;10.98;78.58
35910;BME280;22004;49.120;-0.200;2023-03-22T06:36:55;100516.16;;;10.76;79.76
35910;BME280;22004;49.120;-0.200;2023-03-22T06:39:20;100511.59;;;10.91;79.26
35910;BME280;22004;49.120;-0.200;2023-03-22T06:41:46;100519.88;;;10.75;79.79
35910;BME280;22004;49.120;-0.200;2023-03-22T06:44:12;100515.44;;;10.67;80.56
35910;BME280;22004;49.120;-0.200;2023-03-22T06:46:38;100510.03;;;10.82;79.49
35910;BME280;22004;49.120;-0.200;2023-03-22T06:49:03;100506.72;;;10.80;79.62
35910;BME280;22004;49.120;-0.200;2023-03-22T06:51:29;100500.88;;;10.76;79.67
35910;BME280;22004;49.120;-0.200;2023-03-22T06:53:55;100500.69;;;10.78;79.56
35910;BME280;22004;49.120;-0.200;2023-03-22T06:56:20;100500.50;;;10.94;79.09
35910;BME280;22004;49.120;-0.200;2023-03-22T06:58:45;100494.28;;;10.79;79.50
35910;BME280;22004;49.120;-0.200;2023-03-22T07:01:11;100496.53;;;10.75;79.80
35910;BME280;22004;49.120;-0.200;2023-03-22T07:03:36;100502.63;;;10.84;80.05
35910;BME280;22004;49.120;-0.200;2023-03-22T07:06:03;100506.59;;;10.88;79.54
35910;BME280;22004;49.120;-0.200;2023-03-22T07:08:29;100506.22;;;10.91;79.70
35910;BME280;22004;49.120;-0.200;2023-03-22T07:10:55;100506.06;;;10.78;80.13
35910;BME280;22004;49.120;-0.200;2023-03-22T07:13:20;100503.34;;;10.93;79.58
35910;BME280;22004;49.120;-0.200;2023-03-22T07:15:46;100504.88;;;10.80;80.35
35910;BME280;22004;49.120;-0.200;2023-03-22T07:18:12;100490.13;;;10.91;79.91
35910;BME280;22004;49.120;-0.200;2023-03-22T07:20:37;100497.63;;;10.81;80.82
35910;BME280;22004;49.120;-0.200;2023-03-22T07:23:06;100495.03;;;10.87;80.25
35910;BME280;22004;49.120;-0.200;2023-03-22T07:25:31;100492.47;;;10.79;81.04
35910;BME280;22004;49.120;-0.200;2023-03-22T07:27:58;100514.00;;;10.86;80.87
35910;BME280;22004;49.120;-0.200;2023-03-22T07:30:24;100529.72;;;11.04;79.71
35910;BME280;22004;49.120;-0.200;2023-03-22T07:32:49;100510.38;;;10.94;80.26
35910;BME280;22004;49.120;-0.200;2023-03-22T07:35:15;100516.03;;;10.84;80.38
35910;BME280;22004;49.120;-0.200;2023-03-22T07:37:41;100511.78;;;10.90;80.10
35910;BME280;22004;49.120;-0.200;2023-03-22T07:40:07;100502.91;;;10.89;79.91
35910;BME280;22004;49.120;-0.200;2023-03-22T07:42:32;100512.50;;;10.98;79.51
35910;BME280;22004;49.120;-0.200;2023-03-22T07:44:59;100528.63;;;10.98;79.47
35910;BME280;22004;49.120;-0.200;2023-03-22T07:47:24;100539.75;;;10.95;79.72
35910;BME280;22004;49.120;-0.200;2023-03-22T07:49:51;100528.16;;;11.09;79.08
35910;BME280;22004;49.120;-0.200;2023-03-22T07:52:16;100531.13;;;11.00;79.85
35910;BME280;22004;49.120;-0.200;2023-03-22T07:54:41;100535.75;;;11.06;79.72
35910;BME280;22004;49.120;-0.200;2023-03-22T07:57:08;100532.13;;;10.99;80.38
35910;BME280;22004;49.120;-0.200;2023-03-22T07:59:34;100533.84;;;11.21;79.38
35910;BME280;22004;49.120;-0.200;2023-03-22T08:01:59;100529.25;;;11.15;79.82
35910;BME280;22004;49.120;-0.200;2023-03-22T08:04:24;100532.56;;;11.17;79.19
35910;BME280;22004;49.120;-0.200;2023-03-22T08:06:50;100522.72;;;11.24;79.42
35910;BME280;22004;49.120;-0.200;2023-03-22T08:09:16;100531.94;;;11.36;78.39
35910;BME280;22004;49.120;-0.200;2023-03-22T08:11:42;100524.25;;;11.33;79.01
35910;BME280;22004;49.120;-0.200;2023-03-22T08:14:08;100539.63;;;11.39;78.77
35910;BME280;22004;49.120;-0.200;2023-03-22T08:16:33;100536.75;;;11.41;78.33
35910;BME280;22004;49.120;-0.200;2023-03-22T08:18:59;100541.28;;;11.41;77.85
35910;BME280;22004;49.120;-0.200;2023-03-22T08:21:25;100536.06;;;11.54;77.52
35910;BME280;22004;49.120;-0.200;2023-03-22T08:23:50;100543.72;;;11.57;76.99
35910;BME280;22004;49.120;-0.200;2023-03-22T08:26:15;100538.34;;;11.57;77.37
35910;BME280;22004;49.120;-0.200;2023-03-22T08:28:42;100547.13;;;11.65;76.96
35910;BME280;22004;49.120;-0.200;2023-03-22T08:31:14;100537.19;;;11.66;76.73
35910;BME280;22004;49.120;-0.200;2023-03-22T08:33:41;100541.81;;;11.72;76.89
35910;BME280;22004;49.120;-0.200;2023-03-22T08:36:12;100539.78;;;11.74;76.48
35910;BME280;22004;49.120;-0.200;2023-03-22T08:38:38;100527.31;;;11.73;76.90
35910;BME280;22004;49.120;-0.200;2023-03-22T08:41:03;100531.97;;;11.79;76.67
35910;BME280;22004;49.120;-0.200;2023-03-22T08:43:29;100534.09;;;11.84;76.17
35910;BME280;22004;49.120;-0.200;2023-03-22T08:45:54;100534.09;;;11.84;76.01
35910;BME280;22004;49.120;-0.200;2023-03-22T08:48:20;100532.59;;;11.81;76.27
35910;BME280;22004;49.120;-0.200;2023-03-22T08:50:45;100523.13;;;11.85;76.36
35910;BME280;22004;49.120;-0.200;2023-03-22T08:53:10;100521.28;;;11.86;75.62
35910;BME280;22004;49.120;-0.200;2023-03-22T08:55:38;100521.94;;;11.73;76.86
35910;BME280;22004;49.120;-0.200;2023-03-22T08:58:03;100530.56;;;11.83;76.56
35910;BME280;22004;49.120;-0.200;2023-03-22T09:00:29;100515.91;;;11.86;76.71
35910;BME280;22004;49.120;-0.200;2023-03-22T09:02:55;100514.69;;;11.88;76.60
35910;BME280;22004;49.120;-0.200;2023-03-22T09:05:20;100506.47;;;11.97;76.82
35910;BME280;22004;49.120;-0.200;2023-03-22T09:07:49;100502.81;;;12.04;75.99
35910;BME280;22004;49.120;-0.200;2023-03-22T09:10:15;100495.56;;;12.05;75.87
35910;BME280;22004;49.120;-0.200;2023-03-22T09:12:41;100493.00;;;12.25;75.23
35910;BME280;22004;49.120;-0.200;2023-03-22T09:15:06;100501.25;;;12.23;76.08
35910;BME280;22004;49.120;-0.200;2023-03-22T09:17:32;100502.34;;;12.29;75.10
35910;BME280;22004;49.120;-0.200;2023-03-22T09:19:58;100489.72;;;12.29;75.43
35910;BME280;22004;49.120;-0.200;2023-03-22T09:22:23;100495.97;;;12.36;74.98
35910;BME280;22004;49.120;-0.200;2023-03-22T09:24:49;100497.50;;;12.52;74.25
35910;BME280;22004;49.120;-0.200;2023-03-22T09:27:14;100513.84;;;12.51;73.89
35910;BME280;22004;49.120;-0.200;2023-03-22T09:29:40;100497.53;;;12.59;73.86
35910;BME280;22004;49.120;-0.200;2023-03-22T09:32:06;100498.16;;;12.61;73.86
35910;BME280;22004;49.120;-0.200;2023-03-22T09:34:31;100501.91;;;12.66;73.71
35910;BME280;22004;49.120;-0.200;2023-03-22T09:36:56;100490.69;;;12.63;73.09
35910;BME280;22004;49.120;-0.200;2023-03-22T09:39:22;100489.47;;;12.59;73.37
35910;BME280;22004;49.120;-0.200;2023-03-22T09:41:53;100484.50;;;12.62;73.50
35910;BME280;22004;49.120;-0.200;2023-03-22T09:44:33;100485.09;;;12.58;73.55
35910;BME280;22004;49.120;-0.200;2023-03-22T09:47:02;100478.22;;;12.49;73.81
35910;BME280;22004;49.120;-0.200;2023-03-22T09:49:39;100487.13;;;12.49;74.14
35910;BME280;22004;49.120;-0.200;2023-03-22T09:52:14;100485.72;;;12.53;73.91
35910;BME280;22004;49.120;-0.200;2023-03-22T09:54:41;100488.81;;;12.57;74.18
35910;BME280;22004;49.120;-0.200;2023-03-22T09:57:35;100486.56;;;12.60;73.63
35910;BME280;22004;49.120;-0.200;2023-03-22T10:00:08;100493.69;;;12.75;73.30
35910;BME280;22004;49.120;-0.200;2023-03-22T10:02:44;100485.84;;;12.86;72.98
35910;BME280;22004;49.120;-0.200;2023-03-22T10:05:20;100497.00;;;12.77;73.16
35910;BME280;22004;49.120;-0.200;2023-03-22T10:10:39;100484.13;;;12.72;72.97
35910;BME280;22004;49.120;-0.200;2023-03-22T10:13:29;100479.59;;;12.79;72.95
35910;BME280;22004;49.120;-0.200;2023-03-22T10:16:02;100481.50;;;12.92;72.80
35910;BME280;22004;49.120;-0.200;2023-03-22T10:18:35;100479.25;;;12.96;72.38
35910;BME280;22004;49.120;-0.200;2023-03-22T10:21:01;100461.69;;;13.19;71.73
35910;BME280;22004;49.120;-0.200;2023-03-22T10:23:33;100471.88;;;13.24;71.47
35910;BME280;22004;49.120;-0.200;2023-03-22T10:26:02;100463.19;;;13.35;70.58
35910;BME280;22004;49.120;-0.200;2023-03-22T10:28:33;100455.53;;;13.45;71.34
35910;BME280;22004;49.120;-0.200;2023-03-22T10:31:01;100466.53;;;13.44;70.10
35910;BME280;22004;49.120;-0.200;2023-03-22T10:33:34;100470.84;;;13.32;69.93
35910;BME280;22004;49.120;-0.200;2023-03-22T10:36:02;100463.22;;;13.49;69.93
35910;BME280;22004;49.120;-0.200;2023-03-22T10:38:29;100473.34;;;13.47;70.56
35910;BME280;22004;49.120;-0.200;2023-03-22T10:40:57;100463.19;;;13.35;69.48
35910;BME280;22004;49.120;-0.200;2023-03-22T10:43:35;100466.31;;;13.59;69.30
35910;BME280;22004;49.120;-0.200;2023-03-22T10:46:04;100461.75;;;13.66;68.96
35910;BME280;22004;49.120;-0.200;2023-03-22T10:48:38;100475.03;;;13.48;69.65
35910;BME280;22004;49.120;-0.200;2023-03-22T10:51:05;100471.06;;;13.30;69.90
35910;BME280;22004;49.120;-0.200;2023-03-22T10:53:37;100472.06;;;13.23;69.79
35910;BME280;22004;49.120;-0.200;2023-03-22T10:56:05;100475.63;;;13.30;70.50
35910;BME280;22004;49.120;-0.200;2023-03-22T10:58:34;100477.63;;;13.14;70.57
35910;BME280;22004;49.120;-0.200;2023-03-22T11:03:51;100472.63;;;13.05;71.00
35910;BME280;22004;49.120;-0.200;2023-03-22T11:06:27;100475.13;;;13.06;70.74
35910;BME280;22004;49.120;-0.200;2023-03-22T11:09:14;100466.44;;;13.17;71.11
35910;BME280;22004;49.120;-0.200;2023-03-22T11:11:58;100461.03;;;13.04;71.05
35910;BME280;22004;49.120;-0.200;2023-03-22T11:14:32;100470.97;;;13.04;71.59
35910;BME280;22004;49.120;-0.200;2023-03-22T11:17:06;100461.28;;;13.23;71.13
35910;BME280;22004;49.120;-0.200;2023-03-22T11:19:35;100460.88;;;13.26;71.24
35910;BME280;22004;49.120;-0.200;2023-03-22T11:22:05;100458.19;;;13.26;71.05
35910;BME280;22004;49.120;-0.200;2023-03-22T11:24:32;100453.22;;;13.29;70.92
35910;BME280;22004;49.120;-0.200;2023-03-22T11:29:26;100466.50;;;13.24;71.27
35910;BME280;22004;49.120;-0.200;2023-03-22T11:31:57;100464.78;;;13.16;71.87
35910;BME280;22004;49.120;-0.200;2023-03-22T11:34:26;100460.00;;;13.12;72.25
35910;BME280;22004;49.120;-0.200;2023-03-22T11:36:52;100471.22;;;13.15;71.98
35910;BME280;22004;49.120;-0.200;2023-03-22T11:39:25;100457.31;;;13.12;72.50
35910;BME280;22004;49.120;-0.200;2023-03-22T11:41:55;100464.78;;;13.10;72.12
35910;BME280;22004;49.120;-0.200;2023-03-22T11:44:25;100451.09;;;13.05;72.36
35910;BME280;22004;49.120;-0.200;2023-03-22T11:46:56;100459.56;;;13.02;72.34
35910;BME280;22004;49.120;-0.200;2023-03-22T11:49:25;100456.69;;;13.03;72.35
35910;BME280;22004;49.120;-0.200;2023-03-22T11:52:23;100463.13;;;13.09;72.51
35910;BME280;22004;49.120;-0.200;2023-03-22T11:54:50;100459.56;;;12.95;73.10
35910;BME280;22004;49.120;-0.200;2023-03-22T11:57:38;100462.03;;;12.90;72.96
35910;BME280;22004;49.120;-0.200;2023-03-22T12:02:48;100453.72;;;12.91;72.43
35910;BME280;22004;49.120;-0.200;2023-03-22T12:05:24;100455.38;;;12.92;72.96
35910;BME280;22004;49.120;-0.200;2023-03-22T12:08:02;100455.00;;;12.96;73.31
35910;BME280;22004;49.120;-0.200;2023-03-22T12:10:39;100455.00;;;12.96;72.94
35910;BME280;22004;49.120;-0.200;2023-03-22T12:15:54;100455.38;;;12.86;73.35
35910;BME280;22004;49.120;-0.200;2023-03-22T12:23:19;100451.03;;;12.91;73.27
35910;BME280;22004;49.120;-0.200;2023-03-22T12:25:49;100455.19;;;12.94;73.22
35910;BME280;22004;49.120;-0.200;2023-03-22T12:28:21;100456.03;;;12.94;73.27
35910;BME280;22004;49.120;-0.200;2023-03-22T12:30:51;100450.63;;;12.94;72.50
35910;BME280;22004;49.120;-0.200;2023-03-22T12:33:29;100431.78;;;12.94;72.71
35910;BME280;22004;49.120;-0.200;2023-03-22T12:36:03;100447.50;;;12.91;73.14
35910;BME280;22004;49.120;-0.200;2023-03-22T12:38:49;100446.47;;;12.92;73.80
35910;BME280;22004;49.120;-0.200;2023-03-22T12:41:22;100432.81;;;12.93;73.32
35910;BME280;22004;49.120;-0.200;2023-03-22T12:43:59;100437.38;;;12.93;73.11
35910;BME280;22004;49.120;-0.200;2023-03-22T12:46:28;100440.47;;;12.90;73.19
35910;BME280;22004;49.120;-0.200;2023-03-22T12:49:06;100454.16;;;12.88;73.64
35910;BME280;22004;49.120;-0.200;2023-03-22T12:51:37;100436.94;;;12.89;73.24
35910;BME280;22004;49.120;-0.200;2023-03-22T12:54:04;100441.91;;;12.86;73.75
35910;BME280;22004;49.120;-0.200;2023-03-22T12:56:39;100442.72;;;12.86;73.73
35910;BME280;22004;49.120;-0.200;2023-03-22T12:59:12;100445.25;;;12.88;73.82
35910;BME280;22004;49.120;-0.200;2023-03-22T13:07:09;100429.91;;;12.88;74.09
35910;BME280;22004;49.120;-0.200;2023-03-22T13:09:43;100432.81;;;12.93;73.94
35910;BME280;22004;49.120;-0.200;2023-03-22T13:19:53;100414.56;;;12.96;73.86
35910;BME280;22004;49.120;-0.200;2023-03-22T13:22:29;100416.44;;;13.02;73.54
35910;BME280;22004;49.120;-0.200;2023-03-22T13:27:57;100408.34;;;13.02;73.63
35910;BME280;22004;49.120;-0.200;2023-03-22T13:30:28;100408.34;;;12.95;74.66
35910;BME280;22004;49.120;-0.200;2023-03-22T13:33:00;100397.56;;;13.02;74.16
35910;BME280;22004;49.120;-0.200;2023-03-22T13:38:13;100387.41;;;12.97;74.96
35910;BME280;22004;49.120;-0.200;2023-03-22T13:43:30;100399.06;;;13.11;74.02
35910;BME280;22004;49.120;-0.200;2023-03-22T13:46:08;100393.66;;;13.11;74.29
35910;BME280;22004;49.120;-0.200;2023-03-22T13:48:42;100387.00;;;13.07;74.36
35910;BME280;22004;49.120;-0.200;2023-03-22T13:51:10;100370.66;;;13.08;73.77
35910;BME280;22004;49.120;-0.200;2023-03-22T13:53:40;100372.31;;;13.09;74.72
35910;BME280;22004;49.120;-0.200;2023-03-22T13:56:10;100376.44;;;13.12;74.22
35910;BME280;22004;49.120;-0.200;2023-03-22T13:58:57;100375.44;;;13.13;74.41
35910;BME280;22004;49.120;-0.200;2023-03-22T14:04:00;100369.00;;;13.20;74.94
35910;BME280;22004;49.120;-0.200;2023-03-22T14:06:34;100364.44;;;13.21;74.46
35910;BME280;22004;49.120;-0.200;2023-03-22T14:09:10;100353.88;;;13.26;75.26
35910;BME280;22004;49.120;-0.200;2023-03-22T14:14:11;100351.59;;;13.36;75.05
35910;BME280;22004;49.120;-0.200;2023-03-22T14:19:23;100344.75;;;13.40;75.18